KCNO

Chino Airport

Chino, California, USA
METAR KCNO 221653Z VRB04KT 10SM BKN025 OVC042 18/10 A2995 RMK AO2 SLP137 T01780100
Observed Flight Rules
May-22 @ 16:53 UTC (an hour ago) Marginal Visual Flight Rules
Wind Visibility Clouds
Variable at 4 knots 10 miles
  • Broken at 2,500' AGL
  • Overcast at 4,200' AGL
Temperatures Readings
Current 18°C / 64°F
Dewpoint 10°C / 50°F
Humidity 60%
Altimeter 29.95" Hg
Pressure 1013.7 hPa
Elevation 207
METAR KCNO 221653Z VRB04KT 10SM BKN025 OVC042 18/10 A2995 RMK AO2 SLP137 T01780100
Observed Flight Rules
May-22 @ 16:53 UTC
(an hour ago)
MVFR
Wind Visibility
Variable at 4 knots 10 miles
Clouds
  • Broken at 2,500' AGL
  • Overcast at 4,200' AGL
Temperature Dewpoint
18°C / 64°F 10°C / 50°F
Humidity Altimeter Pressure
60% 29.95" Hg 1013.7 hPa